Time;durP1;ratioP1;P1;durP2;ratioP2;P2;SDS_P1;SDS_P2;PMS_P1;PMS_P2;Temp;Humidity;BMP_temperature;BMP_pressure;BME280_temperature;BME280_humidity;BME280_pressure;Samples;Min_cycle;Max_cycle;Signal;HPM_P1;HPM_P2
2022/05/06 00:02:23;;;;;;;55.35;12.52;;;11.40;99.90;;;;;;4972932;28;20049;-70
2022/05/06 00:04:49;;;;;;;46.33;10.98;;;11.40;99.90;;;;;;4977393;28;20031;-69
2022/05/06 00:07:15;;;;;;;63.70;13.63;;;11.30;99.90;;;;;;4977471;28;20037;-72
2022/05/06 00:09:42;;;;;;;55.83;11.63;;;11.30;99.90;;;;;;4985822;28;20035;-69
2022/05/06 00:12:08;;;;;;;38.67;10.55;;;11.20;99.90;;;;;;4972973;28;20776;-70
2022/05/06 00:14:37;;;;;;;46.45;10.15;;;11.20;99.90;;;;;;4971813;28;20827;-71
2022/05/06 00:17:04;;;;;;;40.80;10.25;;;11.10;99.90;;;;;;4979422;28;20063;-70
2022/05/06 00:19:30;;;;;;;39.35;9.73;;;11.10;99.90;;;;;;4972482;28;20034;-69
2022/05/06 00:21:56;;;;;;;34.15;8.35;;;11.10;99.90;;;;;;4972114;28;20038;-70
2022/05/06 00:24:21;;;;;;;36.83;9.20;;;11.00;99.90;;;;;;4971594;28;20658;-70
2022/05/06 00:26:47;;;;;;;31.67;8.65;;;11.00;99.90;;;;;;4970761;28;20113;-70
2022/05/06 00:29:12;;;;;;;33.22;8.68;;;11.00;99.90;;;;;;4984832;28;20038;-69
2022/05/06 00:31:38;;;;;;;36.15;8.50;;;11.00;99.90;;;;;;4983248;28;20044;-69
2022/05/06 00:34:04;;;;;;;30.88;8.73;;;11.00;99.90;;;;;;4986638;28;20088;-70
2022/05/06 00:36:29;;;;;;;22.65;7.38;;;10.90;99.90;;;;;;4979417;28;20053;-69
2022/05/06 00:38:55;;;;;;;28.52;7.80;;;10.90;99.90;;;;;;4981025;28;20495;-71
2022/05/06 00:41:20;;;;;;;32.78;7.82;;;10.90;99.90;;;;;;4980361;28;20267;-70
2022/05/06 00:43:46;;;;;;;26.63;6.90;;;10.90;99.90;;;;;;4978788;28;20062;-71
2022/05/06 00:46:15;;;;;;;36.25;8.32;;;10.90;99.90;;;;;;4979530;28;20034;-70
2022/05/06 00:48:44;;;;;;;26.33;7.00;;;10.80;99.90;;;;;;4981445;28;20372;-71
2022/05/06 00:51:10;;;;;;;30.25;8.07;;;10.90;99.90;;;;;;4978766;28;20045;-71
2022/05/06 00:53:36;;;;;;;31.92;8.10;;;10.90;99.90;;;;;;4981596;28;20125;-70
2022/05/06 00:56:04;;;;;;;25.40;8.48;;;10.80;99.90;;;;;;4978951;28;20523;-71
2022/05/06 00:58:32;;;;;;;44.90;7.45;;;10.80;99.90;;;;;;4981384;28;20036;-73
2022/05/06 01:00:57;;;;;;;30.83;7.22;;;10.80;99.90;;;;;;4979014;28;20058;-70
2022/05/06 01:03:23;;;;;;;24.05;7.07;;;10.80;99.90;;;;;;4978741;28;20521;-71
2022/05/06 01:05:52;;;;;;;16.13;6.15;;;10.70;99.90;;;;;;4978249;28;20065;-71
2022/05/06 01:08:17;;;;;;;15.15;5.88;;;10.70;99.90;;;;;;4977757;28;20027;-70
2022/05/06 01:10:43;;;;;;;22.48;6.32;;;10.70;99.90;;;;;;4980513;28;20058;-70
2022/05/06 01:13:09;;;;;;;38.42;7.03;;;10.60;99.90;;;;;;4976817;28;20106;-72
2022/05/06 01:15:34;;;;;;;40.50;7.57;;;10.50;99.90;;;;;;4980030;28;20085;-71
2022/05/06 01:18:00;;;;;;;40.92;8.82;;;10.50;99.90;;;;;;4976682;28;20031;-71
2022/05/06 01:20:26;;;;;;;25.25;7.18;;;10.50;99.90;;;;;;4980106;28;20042;-71
2022/05/06 01:22:54;;;;;;;59.10;7.93;;;10.50;99.90;;;;;;4978755;28;20076;-70
2022/05/06 01:25:20;;;;;;;26.33;6.88;;;10.50;99.90;;;;;;4978175;28;20055;-71
2022/05/06 01:28:02;;;;;;;26.15;7.72;;;10.50;99.90;;;;;;4979442;28;20026;-71
2022/05/06 01:30:31;;;;;;;26.98;7.47;;;10.60;99.90;;;;;;4979921;28;20034;-71
2022/05/06 01:32:59;;;;;;;28.92;7.53;;;10.60;99.90;;;;;;4978685;28;20027;-71
2022/05/06 01:35:28;;;;;;;30.13;7.68;;;10.60;99.90;;;;;;4976921;28;20070;-71
2022/05/06 01:37:57;;;;;;;22.13;8.10;;;10.60;99.90;;;;;;4980691;28;20042;-71
2022/05/06 01:40:24;;;;;;;34.03;8.15;;;10.60;99.90;;;;;;4975499;28;20483;-71
2022/05/06 01:42:56;;;;;;;30.65;6.63;;;10.60;99.90;;;;;;4972543;28;20035;-69
2022/05/06 01:45:22;;;;;;;17.60;7.45;;;10.60;99.90;;;;;;4977401;28;20046;-71
2022/05/06 01:47:53;;;;;;;15.70;7.10;;;10.60;99.90;;;;;;4977896;28;20119;-70
2022/05/06 01:50:20;;;;;;;;;;;10.60;99.90;;;;;;4978604;28;20052;-71
2022/05/06 01:52:48;;;;;;;20.75;6.25;;;10.60;99.90;;;;;;4978126;28;19958;-71
2022/05/06 01:55:15;;;;;;;33.53;7.05;;;10.60;99.90;;;;;;4980033;28;20054;-71
2022/05/06 01:57:41;;;;;;;19.65;7.00;;;10.60;99.90;;;;;;4978169;28;20039;-71
2022/05/06 02:00:07;;;;;;;19.58;6.53;;;10.50;99.90;;;;;;4979025;28;20040;-69
2022/05/06 02:02:33;;;;;;;16.70;6.43;;;10.50;99.90;;;;;;4976205;28;20043;-71
2022/05/06 02:05:17;;;;;;;20.17;7.30;;;10.50;99.90;;;;;;4982164;28;20034;-70
2022/05/06 02:07:44;;;;;;;25.73;7.00;;;10.50;99.90;;;;;;4976447;28;20065;-70
2022/05/06 02:10:10;;;;;;;13.32;5.97;;;10.50;99.90;;;;;;4979853;28;20076;-70
2022/05/06 02:12:35;;;;;;;15.15;5.55;;;10.50;99.90;;;;;;4976716;28;20475;-69
2022/05/06 02:15:02;;;;;;;17.40;6.35;;;10.50;99.90;;;;;;4980714;28;20045;-71
2022/05/06 02:17:27;;;;;;;29.63;7.07;;;10.50;99.90;;;;;;4977188;28;20114;-70
2022/05/06 02:19:53;;;;;;;29.13;6.72;;;10.40;99.90;;;;;;4979793;28;20092;-71
2022/05/06 02:22:19;;;;;;;19.50;6.90;;;10.40;99.90;;;;;;4976540;28;20038;-70
2022/05/06 02:24:45;;;;;;;24.33;6.43;;;10.40;99.90;;;;;;4978243;28;20117;-70
2022/05/06 02:27:12;;;;;;;22.85;6.22;;;10.40;99.90;;;;;;4979006;28;20621;-69
2022/05/06 02:29:38;;;;;;;37.13;6.78;;;10.40;99.90;;;;;;4977095;28;20048;-71
2022/05/06 02:34:48;;;;;;;17.58;5.97;;;10.40;99.90;;;;;;4977198;28;20558;-71
2022/05/06 02:37:14;;;;;;;13.18;5.35;;;10.40;99.90;;;;;;4978582;28;20035;-71
2022/05/06 02:39:41;;;;;;;17.85;6.88;;;10.30;99.90;;;;;;4978344;28;20061;-71
2022/05/06 02:42:07;;;;;;;17.80;6.63;;;10.40;99.90;;;;;;4974359;28;20117;-71
2022/05/06 02:44:32;;;;;;;28.00;6.70;;;10.50;99.90;;;;;;4976239;28;20549;-71
2022/05/06 02:46:58;;;;;;;23.30;6.38;;;10.40;99.90;;;;;;4980387;28;20109;-70
2022/05/06 02:49:23;;;;;;;23.88;6.70;;;10.40;99.90;;;;;;4977358;28;20035;-71
2022/05/06 02:51:49;;;;;;;17.88;5.43;;;10.50;99.90;;;;;;4978114;28;20383;-71
2022/05/06 02:54:17;;;;;;;14.73;5.47;;;10.40;99.90;;;;;;4976526;28;20495;-71
2022/05/06 02:56:42;;;;;;;19.52;6.03;;;10.30;99.90;;;;;;4977372;28;20045;-70
2022/05/06 02:59:08;;;;;;;25.70;6.32;;;10.30;99.90;;;;;;4979022;28;20034;-70
2022/05/06 03:01:34;;;;;;;20.98;5.88;;;10.30;99.90;;;;;;4976980;28;20047;-70
2022/05/06 03:03:59;;;;;;;31.48;6.68;;;10.30;99.90;;;;;;4979293;28;20042;-70
2022/05/06 03:06:25;;;;;;;22.05;5.50;;;10.30;99.90;;;;;;4976343;28;20037;-69
2022/05/06 03:08:50;;;;;;;25.50;6.45;;;10.20;99.90;;;;;;4978209;28;20085;-70
2022/05/06 03:11:16;;;;;;;13.55;5.85;;;10.30;99.90;;;;;;4976318;28;20921;-70
2022/05/06 03:13:41;;;;;;;22.90;6.07;;;10.30;99.90;;;;;;4977135;28;20474;-70
2022/05/06 03:16:07;;;;;;;23.30;6.80;;;10.30;99.90;;;;;;4978999;28;20046;-70
2022/05/06 03:18:33;;;;;;;31.75;6.80;;;10.30;99.90;;;;;;4976818;28;20085;-70
2022/05/06 03:20:58;;;;;;;23.58;6.05;;;10.30;99.90;;;;;;4979466;28;20038;-70
2022/05/06 03:23:24;;;;;;;27.40;5.65;;;10.30;99.90;;;;;;4974482;28;20069;-70
2022/05/06 03:25:49;;;;;;;29.45;5.60;;;10.30;99.90;;;;;;4979276;28;20034;-70
2022/05/06 03:28:15;;;;;;;26.75;5.55;;;10.30;99.90;;;;;;4977794;28;20109;-70
2022/05/06 03:30:44;;;;;;;22.08;5.40;;;10.30;99.90;;;;;;4980159;28;20499;-70
2022/05/06 03:33:13;;;;;;;24.15;5.57;;;10.30;99.90;;;;;;4981199;28;20035;-70
2022/05/06 03:35:39;;;;;;;19.33;5.30;;;10.20;99.90;;;;;;4981248;28;20066;-69
2022/05/06 03:38:06;;;;;;;12.70;5.20;;;10.20;99.90;;;;;;4981323;28;20498;-70
2022/05/06 03:40:33;;;;;;;12.68;4.82;;;10.20;99.90;;;;;;4980569;28;20697;-69
2022/05/06 03:42:59;;;;;;;17.63;4.85;;;10.30;99.90;;;;;;4977568;28;20030;-69
2022/05/06 03:45:25;;;;;;;11.73;4.40;;;10.20;99.90;;;;;;4980598;28;20458;-70
2022/05/06 03:47:52;;;;;;;15.98;5.57;;;10.20;99.90;;;;;;4983770;28;20026;-69
2022/05/06 03:53:02;;;;;;;14.73;5.15;;;10.20;99.90;;;;;;4969835;28;20916;-71
2022/05/06 03:55:28;;;;;;;9.98;5.38;;;10.30;99.90;;;;;;4982668;28;20038;-71
2022/05/06 03:57:54;;;;;;;21.33;5.07;;;10.30;99.90;;;;;;4980487;28;20774;-70
2022/05/06 04:00:20;;;;;;;16.92;5.32;;;10.30;99.90;;;;;;4983525;28;20049;-70
2022/05/06 04:02:47;;;;;;;22.33;4.65;;;10.30;99.90;;;;;;4976474;28;20487;-69
2022/05/06 04:05:12;;;;;;;15.18;4.80;;;10.30;99.90;;;;;;4982726;28;20030;-69
2022/05/06 04:07:38;;;;;;;14.48;5.20;;;10.30;99.90;;;;;;4983338;28;20031;-70
2022/05/06 04:10:05;;;;;;;12.20;4.68;;;10.30;99.90;;;;;;4982718;28;20113;-70
2022/05/06 04:12:30;;;;;;;25.20;4.65;;;10.30;99.90;;;;;;4979346;28;20504;-70
2022/05/06 04:14:56;;;;;;;9.52;4.68;;;10.30;99.90;;;;;;4976267;28;20041;-71
2022/05/06 04:17:21;;;;;;;15.23;3.80;;;10.20;99.90;;;;;;4976363;28;20063;-71
2022/05/06 04:25:17;;;;;;;36.70;4.60;;;10.20;99.90;;;;;;4979041;28;20045;-70
2022/05/06 04:27:43;;;;;;;38.35;4.75;;;10.10;99.90;;;;;;4982747;28;20034;-72
2022/05/06 04:30:11;;;;;;;14.90;4.35;;;10.10;99.90;;;;;;4983679;28;20035;-70
2022/05/06 04:32:36;;;;;;;11.20;3.72;;;10.10;99.90;;;;;;4977000;28;20050;-70
2022/05/06 04:35:05;;;;;;;29.02;4.65;;;10.20;99.90;;;;;;4984917;28;20084;-69
2022/05/06 04:37:31;;;;;;;15.52;3.92;;;10.20;99.90;;;;;;4978214;28;20035;-70
2022/05/06 04:39:58;;;;;;;15.90;4.00;;;10.20;99.90;;;;;;4984412;28;20049;-72
2022/05/06 04:42:23;;;;;;;24.17;4.38;;;10.20;99.90;;;;;;4982349;28;20034;-74
2022/05/06 04:44:49;;;;;;;16.48;4.70;;;10.20;99.90;;;;;;4974495;28;20060;-70
2022/05/06 04:47:14;;;;;;;18.45;5.65;;;10.20;99.90;;;;;;4973777;28;20034;-69
2022/05/06 04:49:40;;;;;;;14.43;4.57;;;10.20;99.90;;;;;;4981279;28;20035;-69
2022/05/06 04:52:06;;;;;;;20.42;4.80;;;10.30;99.90;;;;;;4979112;28;20031;-70
2022/05/06 04:54:31;;;;;;;16.70;4.53;;;10.20;99.90;;;;;;4981241;28;20503;-70
2022/05/06 04:56:57;;;;;;;8.25;4.22;;;10.20;99.90;;;;;;4983063;28;20039;-71
2022/05/06 04:59:23;;;;;;;11.52;3.95;;;10.20;99.90;;;;;;4983528;28;20040;-70
2022/05/06 05:01:49;;;;;;;14.18;3.67;;;10.30;99.90;;;;;;4967195;28;20569;-70
2022/05/06 05:04:14;;;;;;;13.88;4.55;;;10.30;99.90;;;;;;4978703;28;20050;-71
2022/05/06 05:06:40;;;;;;;8.05;4.18;;;10.30;99.90;;;;;;4979471;28;20046;-70
2022/05/06 05:09:06;;;;;;;18.20;3.95;;;10.30;99.90;;;;;;4981389;28;20121;-69
2022/05/06 05:11:36;;;;;;;11.20;3.60;;;10.40;99.90;;;;;;4981244;28;20045;-69
2022/05/06 05:14:06;;;;;;;16.20;3.35;;;10.40;99.90;;;;;;4979847;28;20055;-70
2022/05/06 05:16:32;;;;;;;9.32;3.45;;;10.40;99.90;;;;;;4976526;28;20035;-69
2022/05/06 05:18:58;;;;;;;10.52;3.17;;;10.40;99.90;;;;;;4981592;28;20490;-69
2022/05/06 05:21:23;;;;;;;10.77;2.90;;;10.30;99.90;;;;;;4985564;28;20034;-69
2022/05/06 05:23:49;;;;;;;10.43;3.63;;;10.40;99.90;;;;;;4978155;28;20030;-70
2022/05/06 05:26:14;;;;;;;5.38;2.83;;;10.40;99.90;;;;;;4975312;28;20077;-70
2022/05/06 05:28:40;;;;;;;6.60;3.10;;;10.40;99.90;;;;;;4977113;28;20034;-71
2022/05/06 05:31:06;;;;;;;9.60;3.33;;;10.40;99.90;;;;;;4982856;28;20134;-67
2022/05/06 05:33:32;;;;;;;10.57;3.65;;;10.40;99.90;;;;;;4980337;28;20049;-69
2022/05/06 05:35:57;;;;;;;17.45;4.07;;;10.50;99.90;;;;;;4983278;28;20042;-70
2022/05/06 05:38:23;;;;;;;14.20;4.35;;;10.50;99.90;;;;;;4983156;28;20041;-70
2022/05/06 05:40:48;;;;;;;9.55;3.40;;;10.50;99.90;;;;;;4982052;28;20034;-69
2022/05/06 05:48:43;;;;;;;9.18;4.15;;;10.70;99.90;;;;;;4983005;28;20030;-69
2022/05/06 05:51:09;;;;;;;18.17;3.90;;;10.70;99.90;;;;;;4989256;28;20121;-70
2022/05/06 05:53:34;;;;;;;22.98;4.32;;;10.70;99.90;;;;;;4983312;28;20135;-70
2022/05/06 05:56:00;;;;;;;13.95;4.35;;;10.70;99.90;;;;;;4977917;28;20437;-70
2022/05/06 05:58:26;;;;;;;8.60;4.38;;;10.80;99.90;;;;;;4984585;28;20049;-70
2022/05/06 06:00:52;;;;;;;11.65;5.05;;;10.80;99.90;;;;;;4978410;28;20487;-69
2022/05/06 06:03:17;;;;;;;8.52;4.20;;;10.90;99.90;;;;;;4975116;28;20487;-69
2022/05/06 06:05:44;;;;;;;9.63;4.72;;;11.00;99.90;;;;;;4976026;28;20030;-69
2022/05/06 06:08:10;;;;;;;11.57;4.63;;;11.10;99.90;;;;;;4975499;28;20042;-70
2022/05/06 06:10:35;;;;;;;9.65;4.68;;;11.20;99.90;;;;;;4977109;28;20039;-70
2022/05/06 06:13:04;;;;;;;10.68;4.30;;;11.20;99.90;;;;;;4976109;28;20171;-70
2022/05/06 06:15:30;;;;;;;9.45;4.38;;;11.20;99.90;;;;;;4976965;28;20465;-70
2022/05/06 06:17:55;;;;;;;12.27;5.40;;;11.30;99.90;;;;;;4975071;28;20030;-70
2022/05/06 06:20:23;;;;;;;11.02;5.00;;;11.30;99.90;;;;;;4971050;28;20041;-70
2022/05/06 06:22:49;;;;;;;8.88;4.40;;;11.30;99.90;;;;;;4976445;28;20038;-69
2022/05/06 06:25:15;;;;;;;8.38;4.60;;;11.40;99.90;;;;;;4969290;28;20379;-70
2022/05/06 06:27:40;;;;;;;9.13;5.15;;;11.40;99.90;;;;;;4973640;28;20027;-70
2022/05/06 06:30:06;;;;;;;9.88;4.50;;;11.50;99.90;;;;;;4974471;28;20396;-71
2022/05/06 06:32:32;;;;;;;9.70;4.70;;;11.50;99.90;;;;;;4977826;28;20054;-72
2022/05/06 06:34:57;;;;;;;12.93;4.72;;;11.70;99.90;;;;;;4980417;28;20034;-70
2022/05/06 06:37:25;;;;;;;9.55;4.60;;;11.80;99.90;;;;;;4982257;28;20053;-70
2022/05/06 06:39:51;;;;;;;9.52;4.88;;;11.80;99.90;;;;;;4972927;28;20062;-69
2022/05/06 06:42:17;;;;;;;9.30;4.53;;;11.80;99.90;;;;;;4971647;28;20073;-73
2022/05/06 06:44:42;;;;;;;9.60;4.60;;;11.90;99.90;;;;;;4979003;28;20037;-69
2022/05/06 06:47:14;;;;;;;8.02;4.20;;;11.90;99.90;;;;;;4977218;28;20533;-69
2022/05/06 06:49:39;;;;;;;7.70;3.70;;;12.00;99.90;;;;;;4974655;28;20038;-71
2022/05/06 06:52:06;;;;;;;11.75;5.35;;;12.00;99.90;;;;;;4972351;28;20074;-70
2022/05/06 06:54:32;;;;;;;9.32;4.40;;;12.20;99.90;;;;;;4978624;28;20043;-73
2022/05/06 06:56:58;;;;;;;9.73;4.63;;;12.30;99.90;;;;;;4976396;28;20039;-72
2022/05/06 06:59:23;;;;;;;10.13;4.85;;;12.40;99.90;;;;;;4980976;28;20030;-71
2022/05/06 07:01:49;;;;;;;11.02;4.82;;;12.50;99.90;;;;;;4974843;28;20516;-70
2022/05/06 07:04:15;;;;;;;8.65;4.65;;;12.70;99.90;;;;;;4973571;28;20039;-69
2022/05/06 07:12:09;;;;;;;9.65;4.40;;;12.90;99.90;;;;;;4980271;28;20041;-70
2022/05/06 07:14:36;;;;;;;10.20;4.65;;;13.30;99.90;;;;;;4982183;28;20494;-72
2022/05/06 07:17:05;;;;;;;10.32;5.07;;;13.40;99.90;;;;;;4977661;28;20034;-70
2022/05/06 07:19:30;;;;;;;10.40;5.10;;;13.70;99.90;;;;;;4982891;28;20043;-71
2022/05/06 07:21:56;;;;;;;10.32;4.75;;;13.70;99.90;;;;;;4986134;28;20047;-70
2022/05/06 07:24:24;;;;;;;11.95;5.28;;;13.70;99.90;;;;;;4980283;28;20615;-69
2022/05/06 07:26:50;;;;;;;10.68;5.15;;;13.60;99.90;;;;;;4980227;28;20035;-74
2022/05/06 07:29:16;;;;;;;9.48;4.95;;;13.60;99.90;;;;;;4991333;28;20034;-70
2022/05/06 07:31:43;;;;;;;10.98;4.97;;;13.80;99.90;;;;;;4981660;28;20443;-70
2022/05/06 07:34:11;;;;;;;10.32;4.45;;;13.80;99.90;;;;;;4979123;28;20031;-73
2022/05/06 07:36:42;;;;;;;11.20;4.95;;;14.00;99.90;;;;;;4978196;28;20607;-71
2022/05/06 07:39:12;;;;;;;11.43;5.60;;;14.20;99.90;;;;;;4980125;28;20027;-69
2022/05/06 07:41:39;;;;;;;8.32;4.53;;;14.30;99.90;;;;;;4978118;28;20038;-71
2022/05/06 07:44:05;;;;;;;15.30;6.38;;;14.20;99.90;;;;;;4979306;28;20563;-70
2022/05/06 07:46:32;;;;;;;17.15;5.13;;;14.30;99.90;;;;;;4965421;28;20093;-70
2022/05/06 07:48:58;;;;;;;8.52;4.55;;;14.40;99.90;;;;;;4969904;28;20046;-70
2022/05/06 07:51:23;;;;;;;11.25;4.95;;;14.40;99.90;;;;;;4972642;28;20550;-70
2022/05/06 07:53:51;;;;;;;8.75;5.22;;;14.60;99.90;;;;;;4977179;28;20716;-70
2022/05/06 07:56:21;;;;;;;11.98;4.28;;;14.60;99.90;;;;;;4980441;28;20042;-73
2022/05/06 07:58:47;;;;;;;6.82;3.85;;;15.20;99.90;;;;;;4981794;28;20037;-71
2022/05/06 08:01:13;;;;;;;6.80;3.88;;;15.90;99.90;;;;;;4981012;28;20125;-70
2022/05/06 08:06:23;;;;;;;5.68;2.97;;;16.40;99.90;;;;;;4976996;28;20114;-69
2022/05/06 08:08:49;;;;;;;6.18;3.03;;;17.10;99.90;;;;;;4974719;28;20114;-70
2022/05/06 08:11:14;;;;;;;5.38;3.13;;;18.00;99.90;;;;;;4989776;28;20121;-71
2022/05/06 08:13:40;;;;;;;5.43;3.00;;;18.40;99.90;;;;;;4979554;28;20035;-70
2022/05/06 08:16:06;;;;;;;5.63;3.03;;;18.50;99.90;;;;;;4987204;28;20094;-70
2022/05/06 08:18:31;;;;;;;5.57;2.78;;;18.50;99.90;;;;;;4982820;28;20110;-70
2022/05/06 08:20:57;;;;;;;4.28;3.00;;;18.30;99.90;;;;;;4982995;28;20039;-74
2022/05/06 08:23:23;;;;;;;4.22;2.67;;;18.10;99.90;;;;;;4974511;28;20046;-71
2022/05/06 08:25:53;;;;;;;4.85;2.78;;;17.80;99.90;;;;;;4985253;28;20113;-69
2022/05/06 08:28:19;;;;;;;3.47;2.35;;;17.60;99.90;;;;;;4979482;28;20027;-70
2022/05/06 08:30:48;;;;;;;6.55;3.20;;;17.40;99.90;;;;;;4973894;28;20031;-69
2022/05/06 08:33:14;;;;;;;6.15;3.63;;;17.30;99.90;;;;;;4981890;28;20411;-71
2022/05/06 08:35:41;;;;;;;5.45;3.35;;;17.50;99.90;;;;;;4982962;28;20039;-71
2022/05/06 08:38:08;;;;;;;6.63;3.08;;;17.60;99.90;;;;;;4975225;28;20035;-70
2022/05/06 08:40:35;;;;;;;5.95;3.05;;;17.70;99.90;;;;;;4963084;28;20039;-69
2022/05/06 08:43:02;;;;;;;7.88;3.33;;;17.70;99.90;;;;;;4965241;28;20050;-71
2022/05/06 08:51:00;;;;;;;5.80;2.95;;;17.80;99.90;;;;;;4966272;28;20061;-70
2022/05/06 08:53:29;;;;;;;8.88;3.33;;;17.90;99.90;;;;;;4973739;28;20506;-71
2022/05/06 08:55:56;;;;;;;6.63;3.22;;;17.90;99.90;;;;;;4975027;28;20089;-70
2022/05/06 08:58:23;;;;;;;7.63;3.47;;;18.00;99.90;;;;;;4971275;28;20042;-69
2022/05/06 09:00:49;;;;;;;5.72;3.03;;;18.10;99.90;;;;;;4970100;28;20038;-70
2022/05/06 09:03:17;;;;;;;8.57;3.80;;;18.10;99.90;;;;;;4971058;28;20101;-70
2022/05/06 09:05:53;;;;;;;5.53;2.95;;;17.90;99.90;;;;;;4972077;28;20400;-70
2022/05/06 09:08:20;;;;;;;6.78;3.28;;;18.00;99.90;;;;;;4973165;28;20094;-69
2022/05/06 09:11:08;;;;;;;6.85;3.60;;;18.10;99.90;;;;;;4968151;28;20039;-70
2022/05/06 09:13:35;;;;;;;5.75;2.85;;;18.30;99.90;;;;;;4971801;28;20118;-70
2022/05/06 09:16:41;;;;;;;7.80;3.00;;;18.50;99.90;;;;;;4972113;28;20671;-70
2022/05/06 09:19:13;;;;;;;7.30;3.70;;;18.60;99.90;;;;;;4972851;28;20035;-70
2022/05/06 09:22:09;;;;;;;7.68;3.15;;;18.60;99.90;;;;;;4970100;28;20050;-70
2022/05/06 09:24:37;;;;;;;6.95;3.40;;;18.80;99.90;;;;;;4973022;28;20030;-70
2022/05/06 09:27:09;;;;;;;11.57;4.15;;;18.80;99.90;;;;;;4971503;28;20035;-70
2022/05/06 09:29:41;;;;;;;6.45;3.15;;;19.10;99.90;;;;;;4972707;28;20042;-70
2022/05/06 09:32:13;;;;;;;9.98;3.65;;;19.20;99.90;;;;;;4970813;28;20033;-70
2022/05/06 09:34:40;;;;;;;5.50;3.17;;;18.90;99.90;;;;;;4967184;28;20027;-70
2022/05/06 09:37:06;;;;;;;8.20;2.90;;;19.00;99.90;;;;;;4972134;28;20035;-70
2022/05/06 09:39:32;;;;;;;11.82;3.22;;;19.10;99.90;;;;;;4971292;28;20513;-71
2022/05/06 09:42:03;;;;;;;7.40;3.50;;;19.10;99.90;;;;;;4969481;28;20875;-70
2022/05/06 09:44:31;;;;;;;8.02;3.80;;;19.40;99.90;;;;;;4973054;28;20094;-70
2022/05/06 09:47:12;;;;;;;6.80;3.20;;;19.50;99.90;;;;;;4968295;28;20035;-70
2022/05/06 09:49:42;;;;;;;5.30;2.72;;;19.70;99.90;;;;;;4966487;28;20039;-70
2022/05/06 09:52:12;;;;;;;7.68;3.85;;;19.60;99.90;;;;;;4966774;28;20049;-70
2022/05/06 09:54:42;;;;;;;7.50;3.63;;;19.70;99.90;;;;;;4971645;28;20038;-70
2022/05/06 09:57:09;;;;;;;6.57;3.15;;;20.00;99.90;;;;;;4978107;28;20034;-69
2022/05/06 09:59:36;;;;;;;7.63;3.80;;;20.10;99.90;;;;;;4970444;28;20038;-69
2022/05/06 10:02:03;;;;;;;6.97;3.65;;;20.20;99.90;;;;;;4969161;28;20062;-70
2022/05/06 10:04:28;;;;;;;11.57;3.90;;;20.30;99.90;;;;;;4976062;28;20113;-71
2022/05/06 10:07:00;;;;;;;6.80;3.33;;;20.10;99.90;;;;;;4977199;28;20581;-70
2022/05/06 10:09:29;;;;;;;8.05;3.85;;;20.10;99.90;;;;;;4975923;28;20065;-71
2022/05/06 10:11:58;;;;;;;9.80;4.32;;;20.20;99.90;;;;;;4975184;28;20038;-71
2022/05/06 10:14:24;;;;;;;11.90;4.38;;;20.20;99.90;;;;;;4974086;28;20035;-70
2022/05/06 10:16:50;;;;;;;9.38;3.65;;;20.20;99.90;;;;;;4975169;28;20034;-71
2022/05/06 10:19:44;;;;;;;9.93;4.40;;;20.20;99.90;;;;;;4974809;28;20035;-70
2022/05/06 10:22:11;;;;;;;11.80;5.10;;;20.30;99.90;;;;;;4975151;28;20065;-71
2022/05/06 10:24:49;;;;;;;11.25;5.18;;;20.40;99.90;;;;;;4970367;28;20089;-71
2022/05/06 10:33:16;;;;;;;12.48;5.97;;;20.50;99.90;;;;;;4964209;28;20068;-71
2022/05/06 10:35:47;;;;;;;12.32;6.35;;;20.30;99.90;;;;;;4968106;28;20043;-71
2022/05/06 10:38:18;;;;;;;11.05;5.35;;;20.40;99.90;;;;;;4972208;28;20053;-71
2022/05/06 10:41:02;;;;;;;9.98;5.53;;;20.70;99.90;;;;;;4971407;28;20085;-71
2022/05/06 10:43:44;;;;;;;14.05;6.40;;;20.80;99.90;;;;;;4964439;28;20657;-71
2022/05/06 10:46:10;;;;;;;12.98;6.63;;;20.90;99.90;;;;;;4967153;28;20517;-70
2022/05/06 10:48:36;;;;;;;15.32;7.32;;;20.90;99.90;;;;;;4970633;28;20035;-71
2022/05/06 10:51:24;;;;;;;12.77;6.78;;;20.90;99.90;;;;;;4970193;28;20042;-69
2022/05/06 10:53:50;;;;;;;14.80;7.07;;;21.00;99.90;;;;;;4975173;28;20443;-71
2022/05/06 10:56:16;;;;;;;16.48;8.13;;;21.10;99.90;;;;;;4976328;28;20049;-70
2022/05/06 10:58:42;;;;;;;15.93;6.60;;;21.50;99.90;;;;;;4976606;28;20663;-71
2022/05/06 11:01:17;;;;;;;15.32;8.07;;;21.60;99.90;;;;;;4979016;28;20118;-71
2022/05/06 11:03:53;;;;;;;12.55;6.35;;;21.60;99.90;;;;;;4975927;28;20491;-72
2022/05/06 11:06:22;;;;;;;14.10;7.40;;;21.50;99.80;;;;;;4977733;28;20034;-70
2022/05/06 11:08:48;;;;;;;18.40;8.63;;;21.40;99.70;;;;;;4978711;28;20038;-70
2022/05/06 11:11:19;;;;;;;14.23;7.15;;;21.30;99.90;;;;;;4971950;28;20038;-70
2022/05/06 11:13:47;;;;;;;11.32;5.78;;;21.30;99.90;;;;;;4975183;28;20065;-71
2022/05/06 11:16:14;;;;;;;11.68;6.00;;;21.50;99.00;;;;;;4977588;28;20390;-70
2022/05/06 11:18:44;;;;;;;12.68;6.70;;;21.70;99.40;;;;;;4976184;28;20049;-71
2022/05/06 11:21:23;;;;;;;12.68;6.60;;;21.70;99.50;;;;;;4976186;28;20038;-71
2022/05/06 11:23:49;;;;;;;15.75;6.05;;;21.80;98.80;;;;;;4976969;28;20046;-71
2022/05/06 11:26:27;;;;;;;13.50;6.07;;;21.80;98.30;;;;;;4970197;28;20027;-70
2022/05/06 11:29:04;;;;;;;15.43;6.88;;;21.70;98.50;;;;;;4970979;28;20046;-70
2022/05/06 11:31:29;;;;;;;11.98;5.75;;;21.60;98.20;;;;;;4967132;28;20073;-70
2022/05/06 11:34:15;;;;;;;12.77;6.20;;;21.30;97.80;;;;;;4965438;28;20047;-70
2022/05/06 11:36:47;;;;;;;13.07;5.68;;;21.10;98.60;;;;;;4965926;28;20034;-70
2022/05/06 11:39:13;;;;;;;13.32;5.97;;;21.20;99.20;;;;;;4971245;28;20031;-71
2022/05/06 11:41:39;;;;;;;14.23;6.82;;;21.40;99.60;;;;;;4969812;28;20043;-71
2022/05/06 11:44:05;;;;;;;14.82;7.57;;;21.50;98.50;;;;;;4975091;28;20031;-71
2022/05/06 11:49:25;;;;;;;15.27;7.10;;;21.80;98.60;;;;;;4966887;28;20449;-70
2022/05/06 11:51:53;;;;;;;12.20;6.35;;;21.90;98.30;;;;;;4973820;28;20030;-70
2022/05/06 11:54:19;;;;;;;11.38;6.15;;;21.80;97.90;;;;;;4973793;28;20050;-70
2022/05/06 11:56:46;;;;;;;13.52;6.43;;;21.60;97.90;;;;;;4973501;28;20047;-71
2022/05/06 11:59:12;;;;;;;10.02;5.35;;;21.50;98.00;;;;;;4973355;28;20122;-70
2022/05/06 12:01:39;;;;;;;12.48;6.82;;;21.60;97.50;;;;;;4976096;28;20122;-71
2022/05/06 12:04:09;;;;;;;11.77;6.70;;;21.60;98.10;;;;;;4969918;28;20038;-71
2022/05/06 12:06:47;;;;;;;12.95;6.25;;;21.50;98.40;;;;;;4972362;28;20034;-71
2022/05/06 12:09:17;;;;;;;13.13;6.90;;;21.30;98.80;;;;;;4974119;28;20030;-71
2022/05/06 12:11:44;;;;;;;13.57;6.38;;;21.40;98.90;;;;;;4972099;28;20423;-72
2022/05/06 12:14:19;;;;;;;12.68;6.72;;;21.30;98.40;;;;;;4973219;28;20504;-70
2022/05/06 12:17:05;;;;;;;10.60;5.43;;;21.40;98.00;;;;;;4970813;28;20495;-71
2022/05/06 12:19:37;;;;;;;13.90;6.32;;;21.30;98.20;;;;;;4973711;28;20038;-71
2022/05/06 12:22:14;;;;;;;12.02;5.63;;;21.30;97.40;;;;;;4969208;28;20041;-72
2022/05/06 12:24:48;;;;;;;14.88;5.78;;;21.40;98.10;;;;;;4973129;28;20034;-70
2022/05/06 12:27:27;;;;;;;13.90;6.57;;;21.50;98.50;;;;;;4971196;28;20093;-69
2022/05/06 12:29:54;;;;;;;12.40;6.63;;;21.90;98.30;;;;;;4974048;28;20046;-71
2022/05/06 12:32:20;;;;;;;15.88;7.22;;;22.30;97.30;;;;;;4972218;28;20030;-71
2022/05/06 12:34:46;;;;;;;15.13;7.03;;;22.30;96.90;;;;;;4973568;28;22305;-72
2022/05/06 12:37:14;;;;;;;14.93;6.57;;;22.30;97.50;;;;;;4971526;28;20554;-69
2022/05/06 12:39:41;;;;;;;13.57;6.15;;;22.30;97.20;;;;;;4973374;28;20039;-70
2022/05/06 12:42:17;;;;;;;9.32;5.75;;;22.20;96.90;;;;;;4972325;28;20041;-71
2022/05/06 12:44:44;;;;;;;9.13;5.78;;;22.30;96.90;;;;;;4967553;28;20177;-72
2022/05/06 12:50:07;;;;;;;11.20;6.25;;;22.40;96.70;;;;;;4976444;28;20041;-69
2022/05/06 12:52:35;;;;;;;15.32;6.88;;;22.50;95.80;;;;;;4970348;28;20042;-68
2022/05/06 12:55:01;;;;;;;13.43;6.95;;;22.40;95.50;;;;;;4974406;28;20133;-70
2022/05/06 12:57:26;;;;;;;8.10;5.20;;;22.20;95.70;;;;;;4970768;28;20049;-70
2022/05/06 12:59:52;;;;;;;10.35;5.47;;;22.20;95.90;;;;;;4971757;28;20190;-70
2022/05/06 13:02:17;;;;;;;8.90;5.18;;;22.10;96.20;;;;;;4968264;28;20112;-70
2022/05/06 13:04:43;;;;;;;12.65;5.30;;;22.20;96.50;;;;;;4972295;28;20050;-69
2022/05/06 13:07:09;;;;;;;7.60;4.93;;;22.20;96.10;;;;;;4970578;28;20118;-71
2022/05/06 13:09:35;;;;;;;7.78;4.95;;;22.20;96.00;;;;;;4970509;28;20406;-70
2022/05/06 13:12:01;;;;;;;12.27;5.90;;;22.10;95.60;;;;;;4971899;28;20061;-70
2022/05/06 13:14:26;;;;;;;11.20;5.60;;;22.10;95.30;;;;;;4970032;28;20061;-72
2022/05/06 13:16:52;;;;;;;8.48;5.00;;;21.90;95.50;;;;;;4974030;28;20086;-69
2022/05/06 13:19:18;;;;;;;9.25;4.82;;;21.90;95.70;;;;;;4966051;28;20061;-69
2022/05/06 13:21:44;;;;;;;8.98;4.80;;;21.70;96.20;;;;;;4972180;28;20074;-68
2022/05/06 13:24:10;;;;;;;8.88;3.65;;;21.70;95.80;;;;;;4969733;28;20030;-66
2022/05/06 13:26:37;;;;;;;11.18;4.40;;;21.60;96.50;;;;;;4972193;28;20038;-69